Weather at Academy Heliport

Public forecast

Using degrees Fahrenheit for public forecast. Weather courtesy of forecast.io.

Closest aviation weather report (METAR) to Academy Heliport

Closest report is Peter O Knight Airport, 2.4 nm (4.5 km) SW. Retrieved 2020/11/30 00:35 UTC (19 minutes ago):

KTPF 300035Z AUTO 23008KT 10SM OVC100 23/19 A2997 RMK AO2

Closest aviation forecast (TAF) to Academy Heliport

Closest forecast is Tampa International Airport, 6.2 nm (11.5 km) WNW. Retrieved 2020-11-30 00:54 UTC (0 seconds ago):

TAF KTPA 292350Z 3000/0106 20008KT P6SM FEW040 BKN250 FM300700 22010G18KT P6SM VCSH SCT030 BKN100 OVC250 PROB30 3010/3014 VRB15G25KT 2SM +TSRA FEW012CB OVC025 FM301400 30012G18KT P6SM VCTS FEW015CB OVC025 FM301700 30012G18KT P6SM FEW025 BKN050